Time;durP1;ratioP1;P1;durP2;ratioP2;P2;SDS_P1;SDS_P2;PMS_P1;PMS_P2;Temp;Humidity;BMP_temperature;BMP_pressure;BME280_temperature;BME280_humidity;BME280_pressure;Samples;Min_cycle;Max_cycle;Signal;HPM_P1;HPM_P2
2023/09/29 00:01:22;;;;;;;8.17;6.13;;;;;;;;;;6215031;23;20694;-66
2023/09/29 00:03:50;;;;;;;5.33;4.90;;;;;;;;;;6214383;23;20647;-67
2023/09/29 00:06:18;;;;;;;6.00;5.40;;;;;;;;;;6215395;23;20633;-67
2023/09/29 00:08:47;;;;;;;10.53;6.73;;;;;;;;;;6189601;23;20678;-67
2023/09/29 00:11:15;;;;;;;7.40;6.03;;;;;;;;;;6216081;23;20567;-67
2023/09/29 00:13:44;;;;;;;8.30;6.37;;;;;;;;;;6215931;23;21003;-67
2023/09/29 00:16:14;;;;;;;8.23;5.40;;;;;;;;;;6214964;23;20658;-67
2023/09/29 00:18:42;;;;;;;5.60;5.10;;;;;;;;;;6215522;23;21246;-67
2023/09/29 00:21:11;;;;;;;7.77;5.77;;;;;;;;;;6215264;23;20729;-67
2023/09/29 00:23:39;;;;;;;5.97;5.47;;;;;;;;;;6189083;23;20726;-67
2023/09/29 00:26:07;;;;;;;6.50;5.33;;;;;;;;;;6215126;23;20662;-67
2023/09/29 00:28:35;;;;;;;5.20;4.70;;;;;;;;;;6214371;23;20662;-67
2023/09/29 00:31:06;;;;;;;5.50;4.90;;;;;;;;;;6214519;23;20662;-66
2023/09/29 00:33:37;;;;;;;5.13;4.57;;;;;;;;;;6188949;23;20627;-66
2023/09/29 00:36:05;;;;;;;6.20;4.67;;;;;;;;;;6214187;23;20718;-66
2023/09/29 00:38:34;;;;;;;7.63;5.00;;;;;;;;;;6214376;23;20674;-66
2023/09/29 00:41:03;;;;;;;5.07;4.67;;;;;;;;;;6188288;23;20694;-66
2023/09/29 00:43:32;;;;;;;13.67;8.30;;;;;;;;;;6213921;23;20659;-66
2023/09/29 00:46:01;;;;;;;35.57;12.00;;;;;;;;;;6214467;23;20663;-66
2023/09/29 00:48:32;;;;;;;13.80;6.20;;;;;;;;;;6214113;23;20654;-66
2023/09/29 00:51:03;;;;;;;8.63;7.73;;;;;;;;;;6187548;23;20622;-66
2023/09/29 00:53:34;;;;;;;19.77;9.93;;;;;;;;;;6186804;23;20978;-66
2023/09/29 00:56:02;;;;;;;12.10;7.90;;;;;;;;;;6187928;23;20662;-65
2023/09/29 00:58:31;;;;;;;7.87;6.20;;;;;;;;;;6214389;23;20658;-65
2023/09/29 01:00:59;;;;;;;6.10;5.60;;;;;;;;;;6213560;23;20710;-67
2023/09/29 01:03:28;;;;;;;8.90;6.20;;;;;;;;;;6213161;23;20660;-66
2023/09/29 01:05:56;;;;;;;6.97;6.37;;;;;;;;;;6188309;23;20663;-66
2023/09/29 01:08:29;;;;;;;10.50;6.03;;;;;;;;;;6214770;23;20687;-66
2023/09/29 01:10:58;;;;;;;5.57;5.07;;;;;;;;;;6214871;23;20938;-66
2023/09/29 01:13:26;;;;;;;6.33;5.30;;;;;;;;;;6213660;23;20767;-66
2023/09/29 01:15:54;;;;;;;10.93;6.10;;;;;;;;;;6215453;23;20675;-66
2023/09/29 01:18:22;;;;;;;8.53;5.97;;;;;;;;;;6188177;23;20667;-66
2023/09/29 01:20:51;;;;;;;7.37;5.60;;;;;;;;;;6188874;23;20690;-66
2023/09/29 01:23:20;;;;;;;6.30;5.80;;;;;;;;;;6213938;23;20664;-66
2023/09/29 01:25:49;;;;;;;6.60;5.53;;;;;;;;;;6214475;23;20985;-66
2023/09/29 01:28:17;;;;;;;5.47;5.07;;;;;;;;;;6187898;23;20698;-66
2023/09/29 01:30:47;;;;;;;8.50;5.90;;;;;;;;;;6213438;23;21211;-66
2023/09/29 01:33:15;;;;;;;7.20;6.50;;;;;;;;;;6213684;23;20650;-66
2023/09/29 01:35:44;;;;;;;5.83;5.20;;;;;;;;;;6213933;23;20659;-66
2023/09/29 01:38:12;;;;;;;9.83;6.30;;;;;;;;;;6188054;23;20654;-66
2023/09/29 01:40:41;;;;;;;6.70;5.50;;;;;;;;;;6214677;23;20698;-66
2023/09/29 01:43:10;;;;;;;5.70;5.17;;;;;;;;;;6187365;23;20655;-67
2023/09/29 01:45:39;;;;;;;6.60;5.93;;;;;;;;;;6214079;23;20683;-66
2023/09/29 01:48:08;;;;;;;6.60;5.60;;;;;;;;;;6213649;23;20711;-66
2023/09/29 01:50:36;;;;;;;5.57;5.10;;;;;;;;;;6214520;23;20740;-66
2023/09/29 01:53:05;;;;;;;5.90;5.30;;;;;;;;;;6215481;23;20655;-66
2023/09/29 01:55:34;;;;;;;6.93;5.23;;;;;;;;;;6216094;23;20564;-67
2023/09/29 01:58:03;;;;;;;5.80;5.30;;;;;;;;;;6216049;23;20650;-66
2023/09/29 02:00:33;;;;;;;10.53;5.03;;;;;;;;;;6189522;23;20712;-66
2023/09/29 02:03:05;;;;;;;5.90;5.33;;;;;;;;;;6214642;23;20671;-66
2023/09/29 02:05:34;;;;;;;6.07;5.43;;;;;;;;;;6215374;23;20693;-66
2023/09/29 02:08:05;;;;;;;6.50;5.90;;;;;;;;;;6164827;23;20630;-66
2023/09/29 02:10:33;;;;;;;7.27;5.40;;;;;;;;;;6216546;23;20686;-66
2023/09/29 02:13:04;;;;;;;6.40;5.80;;;;;;;;;;6214136;23;20676;-66
2023/09/29 02:15:35;;;;;;;5.23;4.80;;;;;;;;;;6189691;23;21182;-66
2023/09/29 02:18:04;;;;;;;6.00;5.50;;;;;;;;;;6189711;23;20593;-66
2023/09/29 02:20:33;;;;;;;5.60;5.20;;;;;;;;;;6216299;23;20975;-66
2023/09/29 02:23:04;;;;;;;26.63;12.73;;;;;;;;;;6215475;23;20654;-66
2023/09/29 02:25:32;;;;;;;8.07;5.30;;;;;;;;;;6216497;23;20662;-66
2023/09/29 02:28:01;;;;;;;8.27;5.00;;;;;;;;;;6215279;23;20670;-66
2023/09/29 02:30:30;;;;;;;6.10;5.50;;;;;;;;;;6190114;23;20654;-66
2023/09/29 02:32:59;;;;;;;9.37;5.80;;;;;;;;;;6188725;23;20943;-66
2023/09/29 02:35:28;;;;;;;6.63;6.13;;;;;;;;;;6189666;23;20671;-66
2023/09/29 02:37:56;;;;;;;7.73;6.10;;;;;;;;;;6188830;23;20662;-66
2023/09/29 02:40:24;;;;;;;7.67;6.87;;;;;;;;;;6215790;23;20663;-66
2023/09/29 02:42:53;;;;;;;28.93;7.07;;;;;;;;;;6215971;23;20718;-66
2023/09/29 02:45:24;;;;;;;10.53;7.20;;;;;;;;;;6190532;23;20651;-66
2023/09/29 02:47:53;;;;;;;9.03;8.13;;;;;;;;;;6216522;23;20599;-66
2023/09/29 02:50:24;;;;;;;10.10;7.37;;;;;;;;;;6216782;23;20687;-66
2023/09/29 02:52:53;;;;;;;7.40;6.80;;;;;;;;;;6215796;23;20628;-66
2023/09/29 02:55:22;;;;;;;9.73;7.37;;;;;;;;;;6216802;23;20662;-66
2023/09/29 02:57:51;;;;;;;6.10;5.50;;;;;;;;;;6214865;23;20655;-66
2023/09/29 03:00:19;;;;;;;7.13;6.43;;;;;;;;;;6215762;23;21152;-66
2023/09/29 03:02:47;;;;;;;9.50;6.50;;;;;;;;;;6213944;23;20702;-66
2023/09/29 03:05:16;;;;;;;8.50;7.60;;;;;;;;;;6214821;23;21198;-66
2023/09/29 03:07:46;;;;;;;9.33;6.20;;;;;;;;;;6214862;23;20652;-67
2023/09/29 03:10:15;;;;;;;11.00;7.87;;;;;;;;;;6215788;23;20625;-66
2023/09/29 03:12:43;;;;;;;8.83;7.57;;;;;;;;;;6215363;23;20687;-66
2023/09/29 03:15:13;;;;;;;10.63;7.73;;;;;;;;;;6215706;23;20978;-67
2023/09/29 03:17:42;;;;;;;7.13;6.53;;;;;;;;;;6215581;23;20933;-66
2023/09/29 03:20:12;;;;;;;8.03;7.33;;;;;;;;;;6215984;23;20654;-66
2023/09/29 03:22:41;;;;;;;9.80;6.93;;;;;;;;;;6189255;23;20670;-66
2023/09/29 03:25:16;;;;;;;7.03;6.40;;;;;;;;;;6216624;23;20699;-66
2023/09/29 03:27:45;;;;;;;12.30;6.97;;;;;;;;;;6215558;23;20630;-66
2023/09/29 03:30:15;;;;;;;8.73;6.90;;;;;;;;;;6215489;23;20651;-66
2023/09/29 03:32:43;;;;;;;10.80;8.20;;;;;;;;;;6214792;23;20651;-66
2023/09/29 03:35:13;;;;;;;12.03;9.73;;;;;;;;;;6215050;23;20702;-66
2023/09/29 03:37:43;;;;;;;11.87;7.97;;;;;;;;;;6215051;23;20667;-66
2023/09/29 03:40:14;;;;;;;9.27;8.37;;;;;;;;;;6214609;23;20639;-66
2023/09/29 03:42:42;;;;;;;12.60;9.37;;;;;;;;;;6215147;23;20678;-66
2023/09/29 03:45:12;;;;;;;12.30;8.67;;;;;;;;;;6215128;23;20671;-66
2023/09/29 03:47:40;;;;;;;9.43;8.40;;;;;;;;;;6215007;23;20667;-66
2023/09/29 03:50:10;;;;;;;12.13;9.00;;;;;;;;;;6214787;23;20968;-66
2023/09/29 03:52:39;;;;;;;11.07;9.07;;;;;;;;;;6215410;23;20650;-66
2023/09/29 03:55:09;;;;;;;14.63;8.37;;;;;;;;;;6188515;23;20654;-66
2023/09/29 03:57:41;;;;;;;13.10;9.30;;;;;;;;;;6215408;23;20677;-66
2023/09/29 04:00:11;;;;;;;14.83;9.83;;;;;;;;;;6214638;23;20623;-66
2023/09/29 04:02:41;;;;;;;11.73;9.00;;;;;;;;;;6214004;23;20678;-66
2023/09/29 04:05:10;;;;;;;13.70;9.90;;;;;;;;;;6213651;23;20662;-67
2023/09/29 04:07:39;;;;;;;9.30;7.87;;;;;;;;;;6215449;23;21178;-67
2023/09/29 04:10:08;;;;;;;11.70;9.47;;;;;;;;;;6213895;23;20654;-67
2023/09/29 04:12:37;;;;;;;10.80;8.40;;;;;;;;;;6171297;23;20696;-66
2023/09/29 04:15:07;;;;;;;8.70;7.90;;;;;;;;;;6154795;23;21260;-66
2023/09/29 04:17:36;;;;;;;10.00;8.30;;;;;;;;;;6154077;23;20621;-66
2023/09/29 04:20:05;;;;;;;12.97;8.00;;;;;;;;;;6154382;23;20787;-66
2023/09/29 04:22:34;;;;;;;9.87;8.63;;;;;;;;;;6155512;23;20689;-66
2023/09/29 04:25:02;;;;;;;11.43;8.90;;;;;;;;;;6154569;23;21022;-66
2023/09/29 04:27:30;;;;;;;11.63;8.50;;;;;;;;;;6153614;23;20577;-66
2023/09/29 04:29:59;;;;;;;10.83;8.80;;;;;;;;;;6153579;23;21041;-66
2023/09/29 04:32:29;;;;;;;9.70;8.67;;;;;;;;;;6154974;23;20648;-66
2023/09/29 04:34:57;;;;;;;11.00;8.03;;;;;;;;;;6155001;23;20660;-66
2023/09/29 04:37:26;;;;;;;11.23;7.80;;;;;;;;;;6155043;23;20716;-66
2023/09/29 04:39:55;;;;;;;8.70;7.90;;;;;;;;;;6154006;23;21212;-66
2023/09/29 04:42:24;;;;;;;8.37;7.67;;;;;;;;;;6155062;23;20704;-66
2023/09/29 04:44:52;;;;;;;13.77;8.33;;;;;;;;;;6154272;23;21015;-66
2023/09/29 04:47:20;;;;;;;9.57;8.63;;;;;;;;;;6154954;23;20660;-66
2023/09/29 04:49:50;;;;;;;9.87;8.07;;;;;;;;;;6154786;23;21180;-66
2023/09/29 04:52:18;;;;;;;9.30;7.70;;;;;;;;;;6154466;23;20664;-66
2023/09/29 04:54:47;;;;;;;10.27;7.10;;;;;;;;;;6155226;23;20645;-66
2023/09/29 04:57:15;;;;;;;10.33;7.00;;;;;;;;;;6154774;23;20874;-66
2023/09/29 04:59:44;;;;;;;9.10;8.20;;;;;;;;;;6155448;23;20656;-66
2023/09/29 05:02:12;;;;;;;9.30;8.37;;;;;;;;;;6153086;23;20715;-66
2023/09/29 05:04:40;;;;;;;11.87;7.67;;;;;;;;;;6153569;23;20661;-66
2023/09/29 05:07:11;;;;;;;8.10;7.30;;;;;;;;;;6153073;23;21021;-66
2023/09/29 05:09:39;;;;;;;10.60;6.97;;;;;;;;;;6154857;23;20621;-66
2023/09/29 05:12:08;;;;;;;8.57;7.27;;;;;;;;;;6182200;23;20675;-66
2023/09/29 05:14:36;;;;;;;8.23;7.30;;;;;;;;;;6184139;23;20707;-66
2023/09/29 05:17:04;;;;;;;11.23;8.17;;;;;;;;;;6184626;23;20668;-66
2023/09/29 05:19:32;;;;;;;11.57;7.33;;;;;;;;;;6183488;23;20656;-66
2023/09/29 05:22:01;;;;;;;8.00;7.20;;;;;;;;;;6182777;23;20687;-66
2023/09/29 05:24:30;;;;;;;9.70;8.00;;;;;;;;;;6183750;23;20654;-66
2023/09/29 05:26:59;;;;;;;8.63;7.67;;;;;;;;;;6184167;23;20659;-66
2023/09/29 05:29:27;;;;;;;8.60;7.73;;;;;;;;;;6184304;23;21023;-66
2023/09/29 05:31:55;;;;;;;8.30;7.40;;;;;;;;;;6184165;23;20934;-66
2023/09/29 05:34:23;;;;;;;9.07;8.17;;;;;;;;;;6183987;23;20628;-67
2023/09/29 05:36:51;;;;;;;7.80;6.90;;;;;;;;;;6185098;23;20614;-66
2023/09/29 05:39:20;;;;;;;7.53;6.83;;;;;;;;;;6183606;23;20706;-66
2023/09/29 05:41:49;;;;;;;10.40;8.10;;;;;;;;;;6183442;23;20664;-66
2023/09/29 05:44:17;;;;;;;14.37;9.30;;;;;;;;;;6184731;23;20695;-66
2023/09/29 05:46:46;;;;;;;9.30;7.82;;;;;;;;;;6186667;23;20515;-67
2023/09/29 05:49:14;;;;;;;12.77;8.20;;;;;;;;;;6193267;23;20602;-65
2023/09/29 05:51:42;;;;;;;9.13;7.50;;;;;;;;;;6200507;23;20584;-65
2023/09/29 05:54:10;;;;;;;9.37;7.63;;;;;;;;;;6201912;23;20785;-66
2023/09/29 05:56:39;;;;;;;10.00;8.33;;;;;;;;;;6203912;23;20607;-65
2023/09/29 05:59:09;;;;;;;12.43;7.63;;;;;;;;;;6205141;23;20577;-67
2023/09/29 06:01:37;;;;;;;9.77;7.83;;;;;;;;;;6204335;23;20596;-66
2023/09/29 06:04:06;;;;;;;8.63;7.80;;;;;;;;;;6199220;23;20675;-66
2023/09/29 06:06:34;;;;;;;9.80;8.20;;;;;;;;;;6201939;23;20572;-64
2023/09/29 06:09:04;;;;;;;12.07;7.40;;;;;;;;;;6203717;23;20577;-65
2023/09/29 06:11:32;;;;;;;9.20;7.20;;;;;;;;;;6205939;23;20595;-65
2023/09/29 06:14:01;;;;;;;10.50;7.10;;;;;;;;;;6232215;23;20604;-66
2023/09/29 06:16:30;;;;;;;8.30;6.93;;;;;;;;;;6233484;23;20579;-66
2023/09/29 06:18:58;;;;;;;7.27;6.50;;;;;;;;;;6233261;23;20579;-66
2023/09/29 06:21:28;;;;;;;8.77;7.03;;;;;;;;;;6233642;23;20579;-65
2023/09/29 06:23:56;;;;;;;7.60;6.67;;;;;;;;;;6218487;23;20790;-65
2023/09/29 06:26:25;;;;;;;7.60;6.90;;;;;;;;;;6191899;23;20702;-65
2023/09/29 06:28:53;;;;;;;7.33;6.63;;;;;;;;;;6216895;23;21199;-66
2023/09/29 06:31:21;;;;;;;6.20;5.70;;;;;;;;;;6218994;23;20591;-66
2023/09/29 06:33:51;;;;;;;5.97;5.47;;;;;;;;;;6218303;23;20658;-66
2023/09/29 06:36:19;;;;;;;19.30;6.60;;;;;;;;;;6191723;23;20627;-67
2023/09/29 06:38:48;;;;;;;7.40;6.57;;;;;;;;;;6191822;23;20632;-66
2023/09/29 06:41:16;;;;;;;8.13;6.53;;;;;;;;;;6218820;23;20664;-66
2023/09/29 06:43:46;;;;;;;7.63;6.47;;;;;;;;;;6218638;23;20676;-66
2023/09/29 06:46:13;;;;;;;8.00;7.20;;;;;;;;;;6192105;23;20639;-65
2023/09/29 06:48:41;;;;;;;6.70;6.10;;;;;;;;;;6218322;23;20625;-66
2023/09/29 06:51:11;;;;;;;7.30;5.87;;;;;;;;;;6217399;23;20603;-66
2023/09/29 06:53:39;;;;;;;10.17;7.07;;;;;;;;;;6221009;23;20675;-66
2023/09/29 06:56:07;;;;;;;10.17;6.00;;;;;;;;;;6220182;23;20606;-66
2023/09/29 06:58:36;;;;;;;7.30;6.50;;;;;;;;;;6195567;23;20638;-66
2023/09/29 07:01:04;;;;;;;8.97;5.93;;;;;;;;;;6194921;23;20599;-67
2023/09/29 07:03:33;;;;;;;6.67;6.17;;;;;;;;;;6219016;23;20598;-66
2023/09/29 07:06:01;;;;;;;6.50;5.50;;;;;;;;;;6219291;23;20668;-66
2023/09/29 07:08:31;;;;;;;7.80;6.00;;;;;;;;;;6193949;23;20638;-66
2023/09/29 07:10:59;;;;;;;8.93;5.70;;;;;;;;;;6217931;23;20651;-67
2023/09/29 07:13:27;;;;;;;5.80;5.30;;;;;;;;;;6221144;23;20705;-67
2023/09/29 07:15:56;;;;;;;5.50;5.00;;;;;;;;;;6224438;23;20572;-67
2023/09/29 07:18:24;;;;;;;7.53;5.73;;;;;;;;;;6223914;23;20637;-66
2023/09/29 07:20:53;;;;;;;5.40;4.90;;;;;;;;;;6218713;23;20658;-65
2023/09/29 07:23:22;;;;;;;6.07;5.50;;;;;;;;;;6227172;23;20639;-66
2023/09/29 07:25:52;;;;;;;6.23;5.60;;;;;;;;;;6227403;23;20567;-66
2023/09/29 07:28:21;;;;;;;5.93;5.53;;;;;;;;;;6216715;23;20751;-66
2023/09/29 07:30:50;;;;;;;10.13;5.20;;;;;;;;;;6217386;23;20709;-66
2023/09/29 07:33:18;;;;;;;5.77;5.20;;;;;;;;;;6220350;23;20651;-66
2023/09/29 07:35:46;;;;;;;6.70;5.97;;;;;;;;;;6220846;23;20598;-65
2023/09/29 07:38:17;;;;;;;7.53;5.30;;;;;;;;;;6218884;23;20662;-66
2023/09/29 07:40:46;;;;;;;6.37;5.23;;;;;;;;;;6219142;23;20572;-65
2023/09/29 07:43:15;;;;;;;5.53;5.10;;;;;;;;;;6221228;23;20643;-66
2023/09/29 07:45:44;;;;;;;4.97;4.53;;;;;;;;;;6223133;23;20604;-66
2023/09/29 07:48:14;;;;;;;7.67;5.87;;;;;;;;;;6225498;23;20595;-66
2023/09/29 07:50:42;;;;;;;5.47;4.97;;;;;;;;;;6226117;23;20603;-65
2023/09/29 07:53:11;;;;;;;5.97;4.73;;;;;;;;;;6192404;23;20655;-66
2023/09/29 07:55:39;;;;;;;5.23;4.83;;;;;;;;;;6220326;23;20655;-66
2023/09/29 07:58:07;;;;;;;6.10;5.50;;;;;;;;;;6219990;23;20607;-66
2023/09/29 08:00:37;;;;;;;7.00;5.63;;;;;;;;;;6219427;23;20659;-66
2023/09/29 08:03:05;;;;;;;8.30;4.97;;;;;;;;;;6221635;23;20597;-67
2023/09/29 08:05:33;;;;;;;6.57;5.83;;;;;;;;;;6220682;23;20954;-66
2023/09/29 08:08:02;;;;;;;10.10;5.27;;;;;;;;;;6220561;23;21103;-65
2023/09/29 08:10:30;;;;;;;6.63;5.80;;;;;;;;;;6218510;23;20655;-65
2023/09/29 08:12:58;;;;;;;6.43;5.30;;;;;;;;;;6217696;23;20995;-66
2023/09/29 08:15:26;;;;;;;5.63;5.23;;;;;;;;;;6221422;23;20603;-65
2023/09/29 08:17:56;;;;;;;6.80;5.80;;;;;;;;;;6221343;23;20614;-65
2023/09/29 08:20:24;;;;;;;6.87;5.63;;;;;;;;;;6220011;23;20675;-65
2023/09/29 08:22:52;;;;;;;8.47;6.37;;;;;;;;;;6219586;23;20806;-65
2023/09/29 08:25:20;;;;;;;5.93;5.20;;;;;;;;;;6218223;23;20639;-65
2023/09/29 08:27:49;;;;;;;6.80;6.20;;;;;;;;;;6218210;23;20588;-65
2023/09/29 08:30:17;;;;;;;6.07;5.67;;;;;;;;;;6218003;23;20724;-65
2023/09/29 08:32:45;;;;;;;6.13;5.60;;;;;;;;;;6217785;23;20662;-65
2023/09/29 08:35:15;;;;;;;7.23;6.67;;;;;;;;;;6218241;23;20603;-65
2023/09/29 08:37:44;;;;;;;9.67;7.20;;;;;;;;;;6217846;23;20677;-66
2023/09/29 08:40:14;;;;;;;11.33;6.67;;;;;;;;;;6192798;23;20638;-66
2023/09/29 08:42:45;;;;;;;8.40;7.80;;;;;;;;;;6221045;23;20599;-65
2023/09/29 08:45:13;;;;;;;8.03;7.33;;;;;;;;;;6220212;23;20632;-65
2023/09/29 08:47:42;;;;;;;8.37;6.93;;;;;;;;;;6218206;23;20627;-66
2023/09/29 08:50:12;;;;;;;7.43;7.03;;;;;;;;;;6218388;23;20600;-66
2023/09/29 08:52:44;;;;;;;9.10;8.20;;;;;;;;;;6221297;23;20626;-66
2023/09/29 08:55:13;;;;;;;8.10;7.60;;;;;;;;;;6221260;23;20563;-65
2023/09/29 08:57:42;;;;;;;7.80;7.30;;;;;;;;;;6223328;23;20634;-65
2023/09/29 09:00:12;;;;;;;6.70;6.30;;;;;;;;;;6222667;23;21115;-66
2023/09/29 09:02:42;;;;;;;7.93;7.40;;;;;;;;;;6195744;23;20591;-66
2023/09/29 09:05:11;;;;;;;9.87;8.93;;;;;;;;;;6218439;23;20687;-66
2023/09/29 09:07:41;;;;;;;9.30;8.60;;;;;;;;;;6217565;23;20663;-66
2023/09/29 09:10:10;;;;;;;8.53;8.03;;;;;;;;;;6217878;23;20647;-65
2023/09/29 09:12:39;;;;;;;9.40;8.70;;;;;;;;;;6217109;23;20642;-66
2023/09/29 09:15:11;;;;;;;9.73;9.10;;;;;;;;;;6218280;23;20644;-66
2023/09/29 09:17:40;;;;;;;9.37;8.63;;;;;;;;;;6195042;23;20579;-66
2023/09/29 09:20:09;;;;;;;10.00;9.10;;;;;;;;;;6229756;23;20579;-67
2023/09/29 09:22:38;;;;;;;9.57;8.80;;;;;;;;;;6202969;23;20618;-68
2023/09/29 09:25:11;;;;;;;9.43;8.63;;;;;;;;;;6230220;23;20639;-66
2023/09/29 09:27:39;;;;;;;9.10;8.53;;;;;;;;;;6233998;23;20551;-67
2023/09/29 09:30:09;;;;;;;10.07;9.10;;;;;;;;;;6234812;23;20583;-66
2023/09/29 09:32:37;;;;;;;9.83;7.93;;;;;;;;;;6232760;23;20552;-68
2023/09/29 09:35:06;;;;;;;9.00;8.10;;;;;;;;;;6232651;23;20575;-66
2023/09/29 09:37:34;;;;;;;8.00;7.50;;;;;;;;;;6224706;23;20909;-67
2023/09/29 09:40:05;;;;;;;8.77;7.70;;;;;;;;;;6227853;23;20588;-66
2023/09/29 09:42:35;;;;;;;8.03;7.43;;;;;;;;;;6226291;23;20568;-67
2023/09/29 09:45:03;;;;;;;7.53;7.10;;;;;;;;;;6227475;23;21186;-65
2023/09/29 09:47:31;;;;;;;9.27;8.50;;;;;;;;;;6225189;23;20606;-67
2023/09/29 09:49:59;;;;;;;7.93;7.33;;;;;;;;;;6229117;23;20576;-66
2023/09/29 09:52:30;;;;;;;8.70;7.90;;;;;;;;;;6226762;23;20604;-66
2023/09/29 09:54:59;;;;;;;8.53;7.93;;;;;;;;;;6226643;23;20571;-67
2023/09/29 09:57:32;;;;;;;8.03;7.30;;;;;;;;;;6220535;23;20600;-68
2023/09/29 10:00:08;;;;;;;11.50;7.73;;;;;;;;;;6235319;23;20555;-69
2023/09/29 10:02:39;;;;;;;8.87;7.93;;;;;;;;;;6231680;23;20516;-66
2023/09/29 10:05:13;;;;;;;8.00;7.43;;;;;;;;;;6222192;23;20614;-68
2023/09/29 10:07:47;;;;;;;8.90;8.20;;;;;;;;;;6221180;23;20598;-67
2023/09/29 10:10:24;;;;;;;8.47;7.97;;;;;;;;;;6221558;23;20604;-67
2023/09/29 10:12:56;;;;;;;7.90;7.40;;;;;;;;;;6223679;23;20643;-67
2023/09/29 10:15:29;;;;;;;8.53;8.03;;;;;;;;;;6223654;23;20594;-66
2023/09/29 10:17:59;;;;;;;8.43;7.83;;;;;;;;;;6224412;23;20544;-66
2023/09/29 10:20:29;;;;;;;9.53;8.77;;;;;;;;;;6222540;23;20607;-66
2023/09/29 10:23:06;;;;;;;8.53;7.93;;;;;;;;;;6225441;23;20575;-67
2023/09/29 10:25:34;;;;;;;9.00;8.30;;;;;;;;;;6222489;23;20615;-67
2023/09/29 10:28:06;;;;;;;9.07;8.47;;;;;;;;;;6224206;23;20581;-67
2023/09/29 10:30:38;;;;;;;9.20;8.70;;;;;;;;;;6225141;23;20564;-67
2023/09/29 10:33:07;;;;;;;9.47;8.57;;;;;;;;;;6222803;23;21113;-67
2023/09/29 10:35:35;;;;;;;10.90;8.60;;;;;;;;;;6221791;23;20591;-65
2023/09/29 10:38:12;;;;;;;9.93;9.33;;;;;;;;;;6234854;23;20563;-66
2023/09/29 10:40:41;;;;;;;10.37;9.77;;;;;;;;;;6238668;23;20544;-66
2023/09/29 10:43:10;;;;;;;9.80;9.20;;;;;;;;;;6239127;23;20578;-66
2023/09/29 10:45:40;;;;;;;10.30;9.43;;;;;;;;;;6237671;23;20619;-68
2023/09/29 10:48:09;;;;;;;10.20;9.33;;;;;;;;;;6239545;23;20541;-68
2023/09/29 10:50:41;;;;;;;10.57;9.50;;;;;;;;;;6238820;23;20570;-67
2023/09/29 10:53:09;;;;;;;9.73;9.13;;;;;;;;;;6239835;23;20567;-66
2023/09/29 10:55:44;;;;;;;11.07;10.30;;;;;;;;;;6237806;23;20564;-67
2023/09/29 10:58:13;;;;;;;13.83;11.70;;;;;;;;;;6236948;23;20535;-66
2023/09/29 11:00:46;;;;;;;13.03;12.07;;;;;;;;;;6237384;23;20701;-67
2023/09/29 11:03:15;;;;;;;13.60;12.80;;;;;;;;;;6237052;23;20567;-67
2023/09/29 11:05:53;;;;;;;12.70;11.90;;;;;;;;;;6236920;23;20639;-67
2023/09/29 11:08:22;;;;;;;12.70;11.77;;;;;;;;;;6238134;23;21071;-67
2023/09/29 11:10:57;;;;;;;13.57;12.30;;;;;;;;;;6206252;23;20583;-67
2023/09/29 11:13:26;;;;;;;12.40;11.60;;;;;;;;;;6234432;23;20690;-67
2023/09/29 11:15:56;;;;;;;13.77;13.07;;;;;;;;;;6237097;23;20572;-67
2023/09/29 11:18:28;;;;;;;14.23;13.20;;;;;;;;;;6237893;23;20568;-67
2023/09/29 11:20:57;;;;;;;13.60;12.70;;;;;;;;;;6236876;23;20536;-67
2023/09/29 11:23:25;;;;;;;13.67;12.90;;;;;;;;;;6211954;23;20580;-68
2023/09/29 11:25:56;;;;;;;15.70;14.43;;;;;;;;;;6235791;23;20622;-68
2023/09/29 11:28:25;;;;;;;14.40;13.50;;;;;;;;;;6236136;23;20528;-68
2023/09/29 11:30:55;;;;;;;16.43;13.53;;;;;;;;;;6234521;23;20564;-68
2023/09/29 11:33:25;;;;;;;14.20;13.30;;;;;;;;;;6236281;23;20575;-68
2023/09/29 11:35:55;;;;;;;15.00;14.10;;;;;;;;;;6233629;23;20946;-68
2023/09/29 11:38:24;;;;;;;14.83;13.83;;;;;;;;;;6235033;23;20572;-67
2023/09/29 11:40:54;;;;;;;15.03;14.00;;;;;;;;;;6234756;23;20588;-68
2023/09/29 11:43:24;;;;;;;13.63;12.83;;;;;;;;;;6235018;23;20548;-67
2023/09/29 11:45:52;;;;;;;13.37;12.57;;;;;;;;;;6234941;23;20622;-67
2023/09/29 11:48:22;;;;;;;13.50;12.30;;;;;;;;;;6234574;23;20580;-68
2023/09/29 11:50:52;;;;;;;13.57;12.60;;;;;;;;;;6234429;23;20572;-67
2023/09/29 11:53:21;;;;;;;13.00;12.10;;;;;;;;;;6233009;23;20544;-67
2023/09/29 11:55:49;;;;;;;12.70;12.10;;;;;;;;;;6234272;23;20572;-67
2023/09/29 11:58:18;;;;;;;13.90;13.20;;;;;;;;;;6233865;23;20579;-68
2023/09/29 12:00:47;;;;;;;14.60;13.70;;;;;;;;;;6233834;23;20576;-67
2023/09/29 12:03:17;;;;;;;14.00;13.10;;;;;;;;;;6256949;23;20602;-67
2023/09/29 12:05:49;;;;;;;14.37;13.73;;;;;;;;;;6257713;23;20619;-67
2023/09/29 12:08:17;;;;;;;14.93;14.03;;;;;;;;;;6230444;23;20539;-66
2023/09/29 12:10:46;;;;;;;16.17;15.03;;;;;;;;;;6200806;23;20592;-67
2023/09/29 12:13:15;;;;;;;14.37;13.70;;;;;;;;;;6225789;23;20854;-67
2023/09/29 12:15:43;;;;;;;14.73;13.93;;;;;;;;;;6227739;23;20588;-67
2023/09/29 12:18:12;;;;;;;14.90;13.90;;;;;;;;;;6228805;23;20953;-67
2023/09/29 12:20:40;;;;;;;14.83;13.93;;;;;;;;;;6239033;23;20568;-67
2023/09/29 12:23:10;;;;;;;15.40;14.60;;;;;;;;;;6228677;23;20619;-67
2023/09/29 12:25:38;;;;;;;15.60;14.27;;;;;;;;;;6227419;23;20639;-67
2023/09/29 12:28:06;;;;;;;14.60;13.90;;;;;;;;;;6229363;23;20594;-67
2023/09/29 12:30:35;;;;;;;14.47;13.77;;;;;;;;;;6228899;23;21133;-67
2023/09/29 12:33:03;;;;;;;14.60;13.40;;;;;;;;;;6201913;23;20584;-67
2023/09/29 12:35:32;;;;;;;13.57;12.87;;;;;;;;;;6231798;23;20572;-68
2023/09/29 12:38:00;;;;;;;13.67;12.87;;;;;;;;;;6233604;23;20606;-68
2023/09/29 12:40:30;;;;;;;13.80;13.07;;;;;;;;;;6207348;23;20572;-68
2023/09/29 12:43:00;;;;;;;13.33;12.63;;;;;;;;;;6234375;23;20593;-67
2023/09/29 12:45:28;;;;;;;12.33;11.70;;;;;;;;;;6233480;23;20572;-67
2023/09/29 12:47:57;;;;;;;12.53;11.83;;;;;;;;;;6232648;23;20584;-67
2023/09/29 12:50:25;;;;;;;13.03;12.33;;;;;;;;;;6233066;23;20568;-67
2023/09/29 12:52:54;;;;;;;13.27;12.37;;;;;;;;;;6234659;23;20584;-67
2023/09/29 12:55:22;;;;;;;12.33;11.30;;;;;;;;;;6233935;23;20568;-67
2023/09/29 12:57:54;;;;;;;13.30;12.33;;;;;;;;;;6232509;23;20939;-67
2023/09/29 13:00:28;;;;;;;13.07;11.97;;;;;;;;;;6232667;23;20555;-68
2023/09/29 13:03:04;;;;;;;13.80;12.80;;;;;;;;;;6231651;23;20543;-68
2023/09/29 13:05:35;;;;;;;13.70;13.00;;;;;;;;;;6232831;23;20544;-67
2023/09/29 13:08:04;;;;;;;14.30;13.17;;;;;;;;;;6233435;23;20536;-68
2023/09/29 13:10:32;;;;;;;16.33;14.67;;;;;;;;;;6231147;23;20575;-67
2023/09/29 13:13:03;;;;;;;15.53;14.43;;;;;;;;;;6231942;23;20604;-68
2023/09/29 13:15:31;;;;;;;15.43;14.43;;;;;;;;;;6231743;23;20547;-67
2023/09/29 13:17:59;;;;;;;15.27;14.30;;;;;;;;;;6232629;23;20603;-67
2023/09/29 13:20:28;;;;;;;17.60;16.40;;;;;;;;;;6231842;23;20579;-68
2023/09/29 13:22:56;;;;;;;17.67;16.10;;;;;;;;;;6233494;23;21773;-67
2023/09/29 13:25:24;;;;;;;18.00;16.70;;;;;;;;;;6232781;23;20580;-68
2023/09/29 13:27:53;;;;;;;19.07;17.40;;;;;;;;;;6232560;23;20607;-67
2023/09/29 13:30:22;;;;;;;19.30;17.70;;;;;;;;;;6233379;23;20587;-67
2023/09/29 13:32:50;;;;;;;18.00;16.80;;;;;;;;;;6256475;23;20568;-67
2023/09/29 13:35:19;;;;;;;19.53;17.73;;;;;;;;;;6232910;23;20568;-67
2023/09/29 13:37:47;;;;;;;18.73;17.27;;;;;;;;;;6235557;23;20574;-67
2023/09/29 13:40:16;;;;;;;18.37;16.93;;;;;;;;;;6233801;23;20556;-67
2023/09/29 13:42:44;;;;;;;18.00;16.70;;;;;;;;;;6257762;23;20583;-67
2023/09/29 13:45:13;;;;;;;19.60;17.97;;;;;;;;;;6232793;23;20572;-68
2023/09/29 13:47:43;;;;;;;20.20;18.33;;;;;;;;;;6235272;23;20989;-68
2023/09/29 13:50:12;;;;;;;19.47;17.67;;;;;;;;;;6207503;23;20558;-68
2023/09/29 13:52:41;;;;;;;20.50;18.47;;;;;;;;;;6234062;23;20583;-67
2023/09/29 13:55:09;;;;;;;19.63;17.97;;;;;;;;;;6233289;23;20563;-68
2023/09/29 13:57:38;;;;;;;20.40;18.77;;;;;;;;;;6233703;23;20563;-67
2023/09/29 14:00:07;;;;;;;20.13;18.37;;;;;;;;;;6258841;23;20571;-68
2023/09/29 14:02:35;;;;;;;20.13;18.43;;;;;;;;;;6207454;23;20979;-68
2023/09/29 14:05:06;;;;;;;23.60;21.30;;;;;;;;;;6232982;23;20571;-68
2023/09/29 14:07:34;;;;;;;24.53;21.53;;;;;;;;;;6234917;23;20584;-68
2023/09/29 14:10:03;;;;;;;23.20;20.57;;;;;;;;;;6233783;23;20572;-68
2023/09/29 14:12:36;;;;;;;23.30;21.00;;;;;;;;;;6234112;23;20623;-68
2023/09/29 14:15:04;;;;;;;24.23;21.80;;;;;;;;;;6233272;23;20574;-68
2023/09/29 14:17:32;;;;;;;26.20;23.70;;;;;;;;;;6233516;23;20591;-68
2023/09/29 14:20:00;;;;;;;32.10;22.83;;;;;;;;;;6258039;23;20610;-68
2023/09/29 14:22:33;;;;;;;25.83;23.20;;;;;;;;;;6234487;23;20543;-68
2023/09/29 14:25:01;;;;;;;24.03;21.43;;;;;;;;;;6258163;23;20567;-67
2023/09/29 14:27:29;;;;;;;25.03;22.30;;;;;;;;;;6235528;23;20622;-68
2023/09/29 14:29:57;;;;;;;35.50;24.60;;;;;;;;;;6234253;23;20876;-67
2023/09/29 14:32:26;;;;;;;33.23;26.47;;;;;;;;;;6226645;23;21285;-67
2023/09/29 14:34:54;;;;;;;29.90;23.67;;;;;;;;;;6235910;23;20974;-68
2023/09/29 14:37:23;;;;;;;30.97;23.90;;;;;;;;;;6235761;23;20576;-68
2023/09/29 14:39:53;;;;;;;34.87;26.80;;;;;;;;;;6235563;23;20571;-67
2023/09/29 14:42:22;;;;;;;32.23;25.40;;;;;;;;;;6236721;23;20540;-68
2023/09/29 14:44:50;;;;;;;31.97;26.60;;;;;;;;;;6235699;23;20580;-67